Terminal Aerodrome Forecast
Issued by NWS

Home | Current Version | Previous Version | Text Only | Print | Product List | Glossary On
Versions: 1 2 3 4 5 6 7 8 9 10 11 12
584
FTUS42 TJSJ 211720
TAFJPS
TAF
TJPS 211720Z 2118/2218 28008KT P6SM FEW030 BKN060
     FM212200 17008KT P6SM FEW030
     FM221300 24010KT P6SM SKC=

USA.gov is the U.S. government's official web portal to all federal, state and local government web resources and services.